createdAt,value
2017-09-21T00:00:53.682Z,4.00
2017-09-21T00:01:57.672Z,4.03
2017-09-21T00:03:00.912Z,4.00
2017-09-21T00:04:04.168Z,4.18
2017-09-21T00:05:06.638Z,4.07
2017-09-21T00:06:09.098Z,4.25
2017-09-21T00:07:12.334Z,3.85
2017-09-21T00:08:15.595Z,4.60
2017-09-21T00:09:18.151Z,4.32
2017-09-21T00:10:20.651Z,4.65
2017-09-21T00:11:23.135Z,4.28
2017-09-21T00:12:26.397Z,3.70
2017-09-21T00:13:28.863Z,3.80
2017-09-21T00:14:31.329Z,4.37
2017-09-21T00:15:33.792Z,4.40
2017-09-21T00:16:36.312Z,3.75
2017-09-21T00:17:39.550Z,3.95
2017-09-21T00:18:42.778Z,4.47
2017-09-21T00:19:46.082Z,4.12
2017-09-21T00:20:48.577Z,4.37
2017-09-21T00:21:51.123Z,4.53
2017-09-21T00:22:53.621Z,4.00
2017-09-21T00:23:56.077Z,4.28
2017-09-21T00:24:58.542Z,4.18
2017-09-21T00:26:01.790Z,4.45
2017-09-21T00:27:05.062Z,4.07
2017-09-21T00:28:07.526Z,4.55
2017-09-21T00:29:09.991Z,4.25
2017-09-21T00:30:13.218Z,4.20
2017-09-21T00:31:15.675Z,4.22
2017-09-21T00:32:18.179Z,3.87
2017-09-21T00:33:21.370Z,4.47
2017-09-21T00:34:23.866Z,4.50
2017-09-21T00:35:26.368Z,4.40
2017-09-21T00:36:29.607Z,4.40
2017-09-21T00:37:32.993Z,3.80
2017-09-21T00:38:35.502Z,4.30
2017-09-21T00:39:37.954Z,4.78
2017-09-21T00:40:40.427Z,4.18
2017-09-21T00:41:42.966Z,4.50
2017-09-21T00:42:46.837Z,3.92
2017-09-21T00:43:49.312Z,3.85
2017-09-21T00:44:51.895Z,3.90
2017-09-21T00:45:54.377Z,4.60
2017-09-21T00:46:57.159Z,3.95
2017-09-21T00:47:59.654Z,4.10
2017-09-21T00:49:02.936Z,3.80
2017-09-21T00:50:05.413Z,4.65
2017-09-21T00:51:08.640Z,4.30
2017-09-21T00:52:11.148Z,4.50
2017-09-21T00:53:13.628Z,4.40
2017-09-21T00:54:16.131Z,4.10
2017-09-21T00:55:18.602Z,4.30
2017-09-21T00:56:21.064Z,4.15
2017-09-21T00:57:23.518Z,4.55
2017-09-21T00:58:26.730Z,4.90
2017-09-21T00:59:29.343Z,4.60
2017-09-21T01:00:32.041Z,4.68
2017-09-21T01:01:34.514Z,5.15
2017-09-21T01:02:37.845Z,4.55
2017-09-21T01:03:40.336Z,5.10
2017-09-21T01:04:42.891Z,5.28
2017-09-21T01:05:45.421Z,5.05
2017-09-21T01:06:47.934Z,5.00
2017-09-21T01:07:50.425Z,4.95
2017-09-21T01:08:52.892Z,5.68
2017-09-21T01:09:55.403Z,5.20
2017-09-21T01:10:57.889Z,4.97
2017-09-21T01:12:01.125Z,5.32
2017-09-21T01:13:04.434Z,5.95
2017-09-21T01:14:06.958Z,4.75
2017-09-21T01:15:09.550Z,4.72
2017-09-21T01:16:12.038Z,5.60
2017-09-21T01:17:14.497Z,5.30
2017-09-21T01:18:17.023Z,5.18
2017-09-21T01:19:19.546Z,5.55
2017-09-21T01:20:22.064Z,5.50
2017-09-21T01:21:24.614Z,5.20
2017-09-21T01:22:27.076Z,5.00
2017-09-21T01:23:29.590Z,5.10
2017-09-21T01:24:32.178Z,5.15
2017-09-21T01:25:34.699Z,4.78
2017-09-21T01:26:37.216Z,4.72
2017-09-21T01:27:39.721Z,5.50
2017-09-21T01:28:42.809Z,4.80
2017-09-21T01:29:45.290Z,4.50
2017-09-21T01:30:47.742Z,4.80
2017-09-21T01:31:58.899Z,5.20
2017-09-21T01:33:01.418Z,5.75
2017-09-21T01:34:03.898Z,4.90
2017-09-21T01:35:07.149Z,5.45
2017-09-21T01:36:09.614Z,5.55
2017-09-21T01:37:12.087Z,5.43
2017-09-21T01:38:15.355Z,4.90
2017-09-21T01:39:17.834Z,5.15
2017-09-21T01:40:20.306Z,4.60
2017-09-21T01:41:22.809Z,5.00
2017-09-21T01:42:25.293Z,5.35
2017-09-21T01:43:27.842Z,4.80
2017-09-21T01:44:30.312Z,5.75
2017-09-21T01:45:33.118Z,4.62
2017-09-21T01:46:36.343Z,5.60
2017-09-21T01:47:38.801Z,5.30
2017-09-21T01:48:41.326Z,5.68
2017-09-21T01:49:43.823Z,5.30
2017-09-21T01:50:47.072Z,5.95
2017-09-21T01:51:50.317Z,5.15
2017-09-21T01:52:54.083Z,5.20
2017-09-21T01:53:56.547Z,5.57
2017-09-21T01:54:59.811Z,5.50
2017-09-21T01:56:02.322Z,5.22
2017-09-21T01:57:04.849Z,5.47
2017-09-21T01:58:07.315Z,6.07
2017-09-21T01:59:10.617Z,4.82
2017-09-21T02:00:13.072Z,4.55
2017-09-21T02:01:16.304Z,5.28
2017-09-21T02:02:18.812Z,5.28
2017-09-21T02:03:21.267Z,5.80
2017-09-21T02:04:24.544Z,5.55
2017-09-21T02:05:27.029Z,6.03
2017-09-21T02:06:30.302Z,5.47
2017-09-21T02:07:32.826Z,6.12
2017-09-21T02:08:35.287Z,7.07
2017-09-21T02:09:37.778Z,6.00
2017-09-21T02:10:40.254Z,6.20
2017-09-21T02:11:43.555Z,5.90
2017-09-21T02:12:46.794Z,6.12
2017-09-21T02:13:49.264Z,6.50
2017-09-21T02:14:51.720Z,6.65
2017-09-21T02:15:54.985Z,5.85
2017-09-21T02:16:57.442Z,6.18
2017-09-21T02:17:59.947Z,5.80
2017-09-21T02:19:02.440Z,6.40
2017-09-21T02:20:05.702Z,6.30
2017-09-21T02:21:08.171Z,6.47
2017-09-21T02:22:10.686Z,6.50
2017-09-21T02:23:13.193Z,6.78
2017-09-21T02:24:15.645Z,6.87
2017-09-21T02:25:18.109Z,6.80
2017-09-21T02:26:21.386Z,7.57
2017-09-21T02:27:23.862Z,7.07
2017-09-21T02:28:27.230Z,7.32
2017-09-21T02:29:30.462Z,7.45
2017-09-21T02:30:33.696Z,7.22
2017-09-21T02:31:36.984Z,8.02
2017-09-21T02:32:39.451Z,7.95
2017-09-21T02:33:41.967Z,8.13
2017-09-21T02:34:44.592Z,7.90
2017-09-21T02:35:47.058Z,8.02
2017-09-21T02:36:49.555Z,8.00
2017-09-21T02:37:52.026Z,8.00
2017-09-21T02:38:54.528Z,7.55
2017-09-21T02:39:57.030Z,8.10
2017-09-21T02:40:59.699Z,7.90
2017-09-21T02:42:02.210Z,7.80
2017-09-21T02:43:05.444Z,7.80
2017-09-21T02:44:08.699Z,8.25
2017-09-21T02:45:11.272Z,8.20
2017-09-21T02:46:13.736Z,8.40
2017-09-21T02:47:17.022Z,8.68
2017-09-21T02:48:19.490Z,8.90
2017-09-21T02:49:23.460Z,8.85
2017-09-21T02:50:26.705Z,8.25
2017-09-21T02:51:29.984Z,8.65
2017-09-21T02:52:32.458Z,8.10
2017-09-21T02:53:35.030Z,8.15
2017-09-21T02:54:37.502Z,8.63
2017-09-21T02:55:40.017Z,9.30
2017-09-21T02:56:42.639Z,8.55
2017-09-21T02:57:45.121Z,8.65
2017-09-21T02:58:47.596Z,9.00
2017-09-21T02:59:50.051Z,8.43
2017-09-21T03:00:53.300Z,8.70
2017-09-21T03:01:56.788Z,8.48
2017-09-21T03:02:59.255Z,9.15
2017-09-21T03:04:02.490Z,9.60
2017-09-21T03:05:04.957Z,8.05
2017-09-21T03:06:07.411Z,9.77
2017-09-21T03:07:10.001Z,8.80
2017-09-21T03:08:12.465Z,8.93
2017-09-21T03:09:14.927Z,8.70
2017-09-21T03:10:18.154Z,9.05
2017-09-21T03:11:20.663Z,8.93
2017-09-21T03:12:23.152Z,9.13
2017-09-21T03:13:25.642Z,9.20
2017-09-21T03:14:28.111Z,9.07
2017-09-21T03:15:30.574Z,9.35
2017-09-21T03:16:33.035Z,8.77
2017-09-21T03:17:35.512Z,8.70
2017-09-21T03:18:38.011Z,9.20
2017-09-21T03:19:40.483Z,9.65
2017-09-21T03:20:43.050Z,9.77
2017-09-21T03:21:45.562Z,8.82
2017-09-21T03:22:48.031Z,8.80
2017-09-21T03:23:50.494Z,10.05
2017-09-21T03:24:53.730Z,10.30
2017-09-21T03:25:56.232Z,9.80
2017-09-21T03:26:58.758Z,10.25
2017-09-21T03:28:01.250Z,9.38
2017-09-21T03:29:03.874Z,10.43
2017-09-21T03:30:06.328Z,10.20
2017-09-21T03:31:08.801Z,10.43
2017-09-21T03:32:11.284Z,10.30
2017-09-21T03:33:13.792Z,9.73
2017-09-21T03:34:16.302Z,10.43
2017-09-21T03:35:18.824Z,10.50
2017-09-21T03:36:21.313Z,9.68
2017-09-21T03:37:23.819Z,9.35
2017-09-21T03:38:26.560Z,9.68
2017-09-21T03:39:29.030Z,10.10
2017-09-21T03:40:31.489Z,10.50
2017-09-21T03:41:33.971Z,10.13
2017-09-21T03:42:36.492Z,11.27
2017-09-21T03:43:39.042Z,11.15
2017-09-21T03:44:41.523Z,10.85
2017-09-21T03:45:44.159Z,10.52
2017-09-21T03:46:47.400Z,11.02
2017-09-21T03:47:50.661Z,10.45
2017-09-21T03:48:53.167Z,10.52
2017-09-21T03:49:55.744Z,11.18
2017-09-21T03:50:58.294Z,10.93
2017-09-21T03:52:00.871Z,11.35
2017-09-21T03:53:03.390Z,11.52
2017-09-21T03:54:05.932Z,12.00
2017-09-21T03:55:08.859Z,11.20
2017-09-21T03:56:11.335Z,11.52
2017-09-21T03:57:13.805Z,12.10
2017-09-21T03:58:16.273Z,11.98
2017-09-21T03:59:18.798Z,12.50
2017-09-21T04:00:21.255Z,11.52
2017-09-21T04:01:24.544Z,11.63
2017-09-21T04:02:27.004Z,12.77
2017-09-21T04:03:29.475Z,13.13
2017-09-21T04:04:32.012Z,12.60
2017-09-21T04:05:35.211Z,13.00
2017-09-21T04:06:37.679Z,12.30
2017-09-21T04:07:40.167Z,13.13
2017-09-21T04:08:43.455Z,13.27
2017-09-21T04:09:45.966Z,13.35
2017-09-21T04:10:49.094Z,12.70
2017-09-21T04:11:51.576Z,12.07
2017-09-21T04:12:54.049Z,12.57
2017-09-21T04:13:56.518Z,13.62
2017-09-21T04:14:59.023Z,13.35
2017-09-21T04:16:01.498Z,12.50
2017-09-21T04:17:05.514Z,12.48
2017-09-21T04:18:07.986Z,13.05
2017-09-21T04:19:11.212Z,12.80
2017-09-21T04:20:13.711Z,12.90
2017-09-21T04:21:16.185Z,12.52
2017-09-21T04:22:19.423Z,13.40
2017-09-21T04:23:22.670Z,13.35
2017-09-21T04:24:25.910Z,13.90
2017-09-21T04:25:29.197Z,13.52
2017-09-21T04:26:31.706Z,13.45
2017-09-21T04:27:34.322Z,13.82
2017-09-21T04:28:36.789Z,12.88
2017-09-21T04:29:39.267Z,12.68
2017-09-21T04:30:41.765Z,14.60
2017-09-21T04:31:44.283Z,14.77
2017-09-21T04:32:46.770Z,14.55
2017-09-21T04:33:49.231Z,14.35
2017-09-21T04:34:51.703Z,14.20
2017-09-21T04:35:54.220Z,13.65
2017-09-21T04:36:56.752Z,14.80
2017-09-21T04:37:59.222Z,14.85
2017-09-21T04:39:01.694Z,15.10
2017-09-21T04:40:04.175Z,15.63
2017-09-21T04:41:06.678Z,14.80
2017-09-21T04:42:09.135Z,14.43
2017-09-21T04:43:11.604Z,15.10
2017-09-21T04:44:14.176Z,15.60
2017-09-21T04:45:16.657Z,15.13
2017-09-21T04:46:19.154Z,16.12
2017-09-21T04:47:22.429Z,13.68
2017-09-21T04:48:24.923Z,15.05
2017-09-21T04:49:28.182Z,15.35
2017-09-21T04:50:31.421Z,16.02
2017-09-21T04:51:35.045Z,15.07
2017-09-21T04:52:38.138Z,15.50
2017-09-21T04:53:40.602Z,16.55
2017-09-21T04:54:43.074Z,16.00
2017-09-21T04:55:45.594Z,15.27
2017-09-21T04:56:48.102Z,17.05
2017-09-21T04:57:51.341Z,14.87
2017-09-21T04:58:54.598Z,15.93
2017-09-21T04:59:57.084Z,16.25
2017-09-21T05:00:59.558Z,17.00
2017-09-21T05:02:02.070Z,16.65
2017-09-21T05:03:05.639Z,17.35
2017-09-21T05:04:08.118Z,16.85
2017-09-21T05:05:10.600Z,16.08
2017-09-21T05:06:13.864Z,16.60
2017-09-21T05:07:16.351Z,15.52
2017-09-21T05:08:18.919Z,17.77
2017-09-21T05:09:21.381Z,17.52
2017-09-21T05:10:24.647Z,16.80
2017-09-21T05:11:27.167Z,16.85
2017-09-21T05:12:29.652Z,16.95
2017-09-21T05:13:33.043Z,17.20
2017-09-21T05:14:35.530Z,17.12
2017-09-21T05:15:38.990Z,16.77
2017-09-21T05:16:42.222Z,17.42
2017-09-21T05:17:44.752Z,15.90
2017-09-21T05:18:48.046Z,16.98
2017-09-21T05:19:50.503Z,17.87
2017-09-21T05:20:52.970Z,16.17
2017-09-21T05:21:55.467Z,16.75
2017-09-21T05:22:58.730Z,17.05
2017-09-21T05:24:02.031Z,16.40
2017-09-21T05:25:04.549Z,17.30
2017-09-21T05:26:07.010Z,17.40
2017-09-21T05:27:10.266Z,17.60
2017-09-21T05:28:13.491Z,17.33
2017-09-21T05:29:16.758Z,17.33
2017-09-21T05:30:19.483Z,17.37
2017-09-21T05:31:21.946Z,17.27
2017-09-21T05:32:24.662Z,17.60
2017-09-21T05:33:27.146Z,18.50
2017-09-21T05:34:30.464Z,17.00
2017-09-21T05:35:33.036Z,18.35
2017-09-21T05:36:35.505Z,18.92
2017-09-21T05:37:37.990Z,17.87
2017-09-21T05:38:40.522Z,18.00
2017-09-21T05:39:43.656Z,18.87
2017-09-21T05:40:46.167Z,17.27
2017-09-21T05:41:49.410Z,17.50
2017-09-21T05:42:51.901Z,19.30
2017-09-21T05:43:54.396Z,17.95
2017-09-21T05:44:57.693Z,18.80
2017-09-21T05:46:00.954Z,18.92
2017-09-21T05:47:03.716Z,20.20
2017-09-21T05:48:06.211Z,18.98
2017-09-21T05:49:09.474Z,17.65
2017-09-21T05:50:12.029Z,19.20
2017-09-21T05:51:14.517Z,18.90
2017-09-21T05:52:16.999Z,19.67
2017-09-21T05:53:19.516Z,18.90
2017-09-21T05:54:21.994Z,19.67
2017-09-21T05:55:24.556Z,20.77
2017-09-21T05:56:27.096Z,19.17
2017-09-21T05:57:29.560Z,20.88
2017-09-21T05:58:32.054Z,21.10
2017-09-21T05:59:34.595Z,19.37
2017-09-21T06:00:37.118Z,19.12
2017-09-21T06:01:40.387Z,19.95
2017-09-21T06:02:42.940Z,20.55
2017-09-21T06:03:45.416Z,20.52
2017-09-21T06:04:48.715Z,20.10
2017-09-21T06:05:51.202Z,18.50
2017-09-21T06:06:53.721Z,19.35
2017-09-21T06:07:56.456Z,19.33
2017-09-21T06:08:59.750Z,20.20
2017-09-21T06:10:02.210Z,18.80
2017-09-21T06:11:04.729Z,21.52
2017-09-21T06:12:08.106Z,20.42
2017-09-21T06:13:10.573Z,22.10
2017-09-21T06:14:13.529Z,20.70
2017-09-21T06:15:16.005Z,20.50
2017-09-21T06:16:18.514Z,20.00
2017-09-21T06:17:21.178Z,20.88
2017-09-21T06:18:23.659Z,21.75
2017-09-21T06:19:26.208Z,20.20
2017-09-21T06:20:28.674Z,20.83
2017-09-21T06:21:31.143Z,21.65
2017-09-21T06:22:33.718Z,21.20
2017-09-21T06:23:36.292Z,20.58
2017-09-21T06:24:38.787Z,20.37
2017-09-21T06:25:43.347Z,20.20
2017-09-21T06:26:45.871Z,19.27
2017-09-21T06:27:48.533Z,21.37
2017-09-21T06:28:51.396Z,21.67
2017-09-21T06:29:53.902Z,20.50
2017-09-21T06:30:56.362Z,20.40
2017-09-21T06:31:58.865Z,20.08
2017-09-21T06:33:01.655Z,22.13
2017-09-21T06:34:04.930Z,20.35
2017-09-21T06:35:07.459Z,20.15
2017-09-21T06:36:09.985Z,21.27
2017-09-21T06:37:12.473Z,21.37
2017-09-21T06:38:14.938Z,21.15
2017-09-21T06:39:17.447Z,20.73
2017-09-21T06:40:19.993Z,20.70
2017-09-21T06:41:22.472Z,21.80
2017-09-21T06:42:24.939Z,21.23
2017-09-21T06:43:27.470Z,20.92
2017-09-21T06:44:29.970Z,22.08
2017-09-21T06:45:33.263Z,19.50
2017-09-21T06:46:35.745Z,22.00
2017-09-21T06:47:39.086Z,22.13
2017-09-21T06:48:42.343Z,21.08
2017-09-21T06:49:44.834Z,21.17
2017-09-21T06:50:47.377Z,22.98
2017-09-21T06:51:50.608Z,22.83
2017-09-21T06:52:53.850Z,21.60
2017-09-21T06:53:57.119Z,21.42
2017-09-21T06:54:59.607Z,21.58
2017-09-21T06:56:02.116Z,21.02
2017-09-21T06:57:04.614Z,21.73
2017-09-21T06:58:07.083Z,22.45
2017-09-21T06:59:09.546Z,23.38
2017-09-21T07:00:12.064Z,22.15
2017-09-21T07:01:14.579Z,22.87
2017-09-21T07:02:17.828Z,22.27
2017-09-21T07:03:20.290Z,23.38
2017-09-21T07:04:22.757Z,24.52
2017-09-21T07:05:25.990Z,23.38
2017-09-21T07:06:29.288Z,23.23
2017-09-21T07:07:31.767Z,22.50
2017-09-21T07:08:34.226Z,23.50
2017-09-21T07:09:37.175Z,23.83
2017-09-21T07:10:39.643Z,23.45
2017-09-21T07:11:42.157Z,23.52
2017-09-21T07:12:45.411Z,22.95
2017-09-21T07:13:48.162Z,23.08
2017-09-21T07:14:51.406Z,22.30
2017-09-21T07:15:54.626Z,21.58
2017-09-21T07:16:57.293Z,23.55
2017-09-21T07:17:59.772Z,23.77
2017-09-21T07:19:02.247Z,23.65
2017-09-21T07:20:04.758Z,22.17
2017-09-21T07:21:08.012Z,22.98
2017-09-21T07:22:10.533Z,22.08
2017-09-21T07:23:13.006Z,22.30
2017-09-21T07:24:15.472Z,22.65
2017-09-21T07:25:18.714Z,22.80
2017-09-21T07:26:21.218Z,22.00
2017-09-21T07:27:23.721Z,23.65
2017-09-21T07:28:26.209Z,22.33
2017-09-21T07:29:28.682Z,20.98
2017-09-21T07:30:31.169Z,23.23
2017-09-21T07:31:33.723Z,22.52
2017-09-21T07:32:36.214Z,22.48
2017-09-21T07:33:38.699Z,22.87
2017-09-21T07:34:41.187Z,21.05
2017-09-21T07:35:43.735Z,22.50
2017-09-21T07:36:46.214Z,22.60
2017-09-21T07:37:48.834Z,21.30
2017-09-21T07:38:51.346Z,20.48
2017-09-21T07:39:54.652Z,20.70
2017-09-21T07:40:57.134Z,20.55
2017-09-21T07:41:59.598Z,20.40
2017-09-21T07:43:02.201Z,21.00
2017-09-21T07:44:04.679Z,20.83
2017-09-21T07:45:07.184Z,20.30
2017-09-21T07:46:09.668Z,20.92
2017-09-21T07:47:12.141Z,18.98
2017-09-21T07:48:14.654Z,21.35
2017-09-21T07:49:17.122Z,19.48
2017-09-21T07:50:20.373Z,20.10
2017-09-21T07:51:22.881Z,20.50
2017-09-21T07:52:26.189Z,19.90
2017-09-21T07:53:28.737Z,19.77
2017-09-21T07:54:31.185Z,20.40
2017-09-21T07:55:34.440Z,19.05
2017-09-21T07:56:36.946Z,20.00
2017-09-21T07:57:40.358Z,19.85
2017-09-21T07:58:42.917Z,19.90
2017-09-21T07:59:45.406Z,19.08
2017-09-21T08:00:47.883Z,18.92
2017-09-21T08:01:50.432Z,19.27
2017-09-21T08:02:52.915Z,18.12
2017-09-21T08:03:56.199Z,16.50
2017-09-21T08:04:58.664Z,16.67
2017-09-21T08:06:01.141Z,17.30
2017-09-21T08:07:03.620Z,16.10
2017-09-21T08:08:06.139Z,15.45
2017-09-21T08:09:08.870Z,15.27
2017-09-21T08:10:11.338Z,15.90
2017-09-21T08:11:13.810Z,15.43
2017-09-21T08:12:16.406Z,18.35
2017-09-21T08:13:18.887Z,17.77
2017-09-21T08:14:22.230Z,18.02
2017-09-21T08:15:25.486Z,17.02
2017-09-21T08:16:28.718Z,17.48
2017-09-21T08:17:31.998Z,15.98
2017-09-21T08:18:34.489Z,14.82
2017-09-21T08:19:37.746Z,15.95
2017-09-21T08:20:40.218Z,15.25
2017-09-21T08:21:42.706Z,17.50
2017-09-21T08:22:45.172Z,17.42
2017-09-21T08:23:47.647Z,18.00
2017-09-21T08:24:50.203Z,16.87
2017-09-21T08:25:52.734Z,15.70
2017-09-21T08:26:55.227Z,16.48
2017-09-21T08:27:57.709Z,16.80
2017-09-21T08:29:00.990Z,15.60
2017-09-21T08:30:03.494Z,15.55
2017-09-21T08:31:06.730Z,14.50
2017-09-21T08:32:09.291Z,14.90
2017-09-21T08:33:11.759Z,13.05
2017-09-21T08:34:14.234Z,13.85
2017-09-21T08:35:16.762Z,14.20
2017-09-21T08:36:19.334Z,13.57
2017-09-21T08:37:21.818Z,13.45
2017-09-21T08:38:24.323Z,14.10
2017-09-21T08:39:27.578Z,15.32
2017-09-21T08:40:30.836Z,15.88
2017-09-21T08:41:33.367Z,16.52
2017-09-21T08:42:35.871Z,15.52
2017-09-21T08:43:39.103Z,15.70
2017-09-21T08:44:42.361Z,14.65
2017-09-21T08:45:44.861Z,15.52
2017-09-21T08:46:48.118Z,16.00
2017-09-21T08:47:51.352Z,15.10
2017-09-21T08:48:54.739Z,15.15
2017-09-21T08:49:57.214Z,14.95
2017-09-21T08:50:59.699Z,14.20
2017-09-21T08:52:02.171Z,14.57
2017-09-21T08:53:05.390Z,13.95
2017-09-21T08:54:07.924Z,14.20
2017-09-21T08:55:11.140Z,13.15
2017-09-21T08:56:13.605Z,14.55
2017-09-21T08:57:16.843Z,14.87
2017-09-21T08:58:20.119Z,15.07
2017-09-21T08:59:22.654Z,14.60
2017-09-21T09:00:25.195Z,14.02
2017-09-21T09:01:27.653Z,14.18
2017-09-21T09:02:30.117Z,15.45
2017-09-21T09:03:32.582Z,13.90
2017-09-21T09:04:35.038Z,14.25
2017-09-21T09:05:38.311Z,13.70
2017-09-21T09:06:40.800Z,13.48
2017-09-21T09:07:43.287Z,13.65
2017-09-21T09:08:45.770Z,13.70
2017-09-21T09:09:48.986Z,13.38
2017-09-21T09:10:51.484Z,13.27
2017-09-21T09:11:53.996Z,12.98
2017-09-21T09:12:56.458Z,13.50
2017-09-21T09:13:58.955Z,13.00
2017-09-21T09:15:01.565Z,12.65
2017-09-21T09:16:04.075Z,13.30
2017-09-21T09:17:06.576Z,12.63
2017-09-21T09:18:09.802Z,11.82
2017-09-21T09:19:12.269Z,13.75
2017-09-21T09:20:14.752Z,13.32
2017-09-21T09:21:17.225Z,12.75
2017-09-21T09:22:19.714Z,13.85
2017-09-21T09:23:22.243Z,12.73
2017-09-21T09:24:24.755Z,12.02
2017-09-21T09:25:27.273Z,11.23
2017-09-21T09:26:29.754Z,11.48
2017-09-21T09:27:32.248Z,11.45
2017-09-21T09:28:35.494Z,11.73
2017-09-21T09:29:38.803Z,11.02
2017-09-21T09:30:41.282Z,11.95
2017-09-21T09:31:43.806Z,12.45
2017-09-21T09:32:46.278Z,11.82
2017-09-21T09:33:49.555Z,10.27
2017-09-21T09:34:52.906Z,10.45
2017-09-21T09:35:56.136Z,10.70
2017-09-21T09:36:58.704Z,10.00
2017-09-21T09:38:01.162Z,10.00
2017-09-21T09:39:03.613Z,9.55
2017-09-21T09:40:06.862Z,8.70
2017-09-21T09:41:10.115Z,9.82
2017-09-21T09:42:12.595Z,9.77
2017-09-21T09:43:15.073Z,9.43
2017-09-21T09:44:17.598Z,9.63
2017-09-21T09:45:20.090Z,9.10
2017-09-21T09:46:22.554Z,8.88
2017-09-21T09:47:25.507Z,7.95
2017-09-21T09:48:27.958Z,7.37
2017-09-21T09:49:31.234Z,7.55
2017-09-21T09:50:34.603Z,7.45
2017-09-21T09:51:37.147Z,7.35
2017-09-21T09:52:39.603Z,7.62
2017-09-21T09:53:42.091Z,7.30
2017-09-21T09:54:44.613Z,6.82
2017-09-21T09:55:47.083Z,7.12
2017-09-21T09:56:49.558Z,6.25
2017-09-21T09:57:52.035Z,6.10
2017-09-21T09:58:54.519Z,5.50
2017-09-21T09:59:56.994Z,6.43
2017-09-21T10:01:00.238Z,5.85
2017-09-21T10:02:03.491Z,5.78
2017-09-21T10:03:06.750Z,5.97
2017-09-21T10:04:09.270Z,6.15
2017-09-21T10:05:11.746Z,6.78
2017-09-21T10:06:14.207Z,6.82
2017-09-21T10:07:17.572Z,6.57
2017-09-21T10:08:20.122Z,6.15
2017-09-21T10:09:22.593Z,5.43
2017-09-21T10:10:25.830Z,5.00
2017-09-21T10:11:28.295Z,4.87
2017-09-21T10:12:30.820Z,5.18
2017-09-21T10:13:33.290Z,5.53
2017-09-21T10:14:35.780Z,5.28
2017-09-21T10:15:38.259Z,5.10
2017-09-21T10:16:41.487Z,5.43
2017-09-21T10:17:44.746Z,5.15
2017-09-21T10:18:47.994Z,5.70
2017-09-21T10:19:51.258Z,5.65
2017-09-21T10:20:53.746Z,5.87
2017-09-21T10:21:56.206Z,6.10
2017-09-21T10:22:58.726Z,6.32
2017-09-21T10:24:01.250Z,5.43
2017-09-21T10:25:04.488Z,5.90
2017-09-21T10:26:07.755Z,5.80
2017-09-21T10:27:10.226Z,5.68
2017-09-21T10:28:12.731Z,5.75
2017-09-21T10:29:15.240Z,5.50
2017-09-21T10:30:17.713Z,6.47
2017-09-21T10:31:21.801Z,6.60
2017-09-21T10:32:24.257Z,6.80
2017-09-21T10:33:26.710Z,6.78
2017-09-21T10:34:29.279Z,6.90
2017-09-21T10:35:32.625Z,7.30
2017-09-21T10:36:35.146Z,8.63
2017-09-21T10:37:37.729Z,7.72
2017-09-21T10:38:40.212Z,7.00
2017-09-21T10:39:42.687Z,8.10
2017-09-21T10:40:45.164Z,7.57
2017-09-21T10:41:47.695Z,7.90
2017-09-21T10:42:50.160Z,7.60
2017-09-21T10:43:52.647Z,6.95
2017-09-21T10:44:55.119Z,6.87
2017-09-21T10:45:58.346Z,8.25
2017-09-21T10:47:00.930Z,6.82
2017-09-21T10:48:03.403Z,7.15
2017-09-21T10:49:05.877Z,6.30
2017-09-21T10:50:08.410Z,6.00
2017-09-21T10:51:10.909Z,6.00
2017-09-21T10:52:14.270Z,6.50
2017-09-21T10:53:16.719Z,5.78
2017-09-21T10:54:19.227Z,5.82
2017-09-21T10:55:21.690Z,6.45
2017-09-21T10:56:24.164Z,5.93
2017-09-21T10:57:26.657Z,6.15
2017-09-21T10:58:30.618Z,5.87
2017-09-21T10:59:33.907Z,6.90
2017-09-21T11:00:36.383Z,6.60
2017-09-21T11:01:39.612Z,6.60
2017-09-21T11:02:42.177Z,6.60
2017-09-21T11:03:45.404Z,5.32
2017-09-21T11:04:48.642Z,6.95
2017-09-21T11:05:51.922Z,7.00
2017-09-21T11:06:55.202Z,6.82
2017-09-21T11:07:57.690Z,6.70
2017-09-21T11:09:00.539Z,7.00
2017-09-21T11:10:03.002Z,6.15
2017-09-21T11:11:06.290Z,6.45
2017-09-21T11:12:08.833Z,6.15
2017-09-21T11:13:11.308Z,6.80
2017-09-21T11:14:14.558Z,6.40
2017-09-21T11:15:17.810Z,5.72
2017-09-21T11:16:21.580Z,5.80
2017-09-21T11:17:24.055Z,6.05
2017-09-21T11:18:26.513Z,5.22
2017-09-21T11:19:28.988Z,6.00
2017-09-21T11:20:31.431Z,5.72
2017-09-21T11:21:33.948Z,5.68
2017-09-21T11:22:36.417Z,5.00
2017-09-21T11:23:38.943Z,5.90
2017-09-21T11:24:41.391Z,5.60
2017-09-21T11:25:43.852Z,5.10
2017-09-21T11:26:46.354Z,6.18
2017-09-21T11:27:48.891Z,5.55
2017-09-21T11:28:51.466Z,5.75
2017-09-21T11:29:54.694Z,5.68
2017-09-21T11:30:57.958Z,5.57
2017-09-21T11:32:00.435Z,5.65
2017-09-21T11:33:02.968Z,5.70
2017-09-21T11:34:06.211Z,6.22
2017-09-21T11:35:08.699Z,5.40
2017-09-21T11:36:11.219Z,4.95
2017-09-21T11:37:13.834Z,5.55
2017-09-21T11:38:16.333Z,5.90
2017-09-21T11:39:20.383Z,5.10
2017-09-21T11:40:23.124Z,5.30
2017-09-21T11:41:26.392Z,4.82
2017-09-21T11:42:28.935Z,4.90
2017-09-21T11:43:31.699Z,4.97
2017-09-21T11:44:34.183Z,4.80
2017-09-21T11:45:36.750Z,4.80
2017-09-21T11:46:39.398Z,4.40
2017-09-21T11:47:41.874Z,4.50
2017-09-21T11:48:44.629Z,4.40
2017-09-21T11:49:47.102Z,4.15
2017-09-21T11:50:49.621Z,4.12
2017-09-21T11:51:52.153Z,3.75
2017-09-21T11:52:54.637Z,4.53
2017-09-21T11:53:57.106Z,4.05
2017-09-21T11:54:59.669Z,4.32
2017-09-21T11:56:02.127Z,4.30
2017-09-21T11:57:05.243Z,4.20
2017-09-21T11:58:07.815Z,4.55
2017-09-21T11:59:11.040Z,3.75
2017-09-21T12:00:13.566Z,4.18
2017-09-21T12:01:16.852Z,4.70
2017-09-21T12:02:19.329Z,4.30
2017-09-21T12:03:22.362Z,4.25
2017-09-21T12:04:24.847Z,4.60
2017-09-21T12:05:27.309Z,4.32
2017-09-21T12:06:29.773Z,4.12
2017-09-21T12:07:33.191Z,4.20
2017-09-21T12:08:35.684Z,5.00
2017-09-21T12:09:38.173Z,4.70
2017-09-21T12:10:40.640Z,4.40
2017-09-21T12:11:43.730Z,4.03
2017-09-21T12:12:46.206Z,4.20
2017-09-21T12:13:48.658Z,4.37
2017-09-21T12:14:51.875Z,3.72
2017-09-21T12:15:54.436Z,4.30
2017-09-21T12:16:57.666Z,4.47
2017-09-21T12:18:00.925Z,4.35
2017-09-21T12:19:03.366Z,3.97
2017-09-21T12:20:05.830Z,4.50
2017-09-21T12:21:08.317Z,4.55
2017-09-21T12:22:10.841Z,4.55
2017-09-21T12:23:13.367Z,4.57
2017-09-21T12:24:15.886Z,4.10
2017-09-21T12:25:18.335Z,4.80
2017-09-21T12:26:20.801Z,3.87
2017-09-21T12:27:23.286Z,3.95
2017-09-21T12:28:25.749Z,4.30
2017-09-21T12:29:28.195Z,4.40
2017-09-21T12:30:31.451Z,4.37
2017-09-21T12:31:33.920Z,4.62
2017-09-21T12:32:36.410Z,4.05
2017-09-21T12:33:38.869Z,3.70
2017-09-21T12:34:41.323Z,3.55
2017-09-21T12:35:43.876Z,3.50
2017-09-21T12:36:46.349Z,4.12
2017-09-21T12:37:48.847Z,4.30
2017-09-21T12:38:51.315Z,3.50
2017-09-21T12:39:53.872Z,3.78
2017-09-21T12:40:57.161Z,4.28
2017-09-21T12:41:59.671Z,3.80
2017-09-21T12:43:02.128Z,4.00
2017-09-21T12:44:05.417Z,4.00
2017-09-21T12:45:07.919Z,4.60
2017-09-21T12:46:11.742Z,4.00
2017-09-21T12:47:14.225Z,3.28
2017-09-21T12:48:17.179Z,3.45
2017-09-21T12:49:19.647Z,4.40
2017-09-21T12:50:22.099Z,5.10
2017-09-21T12:51:24.631Z,4.57
2017-09-21T12:52:27.125Z,5.85
2017-09-21T12:53:29.586Z,5.78
2017-09-21T12:54:32.068Z,5.32
2017-09-21T12:55:34.526Z,4.90
2017-09-21T12:56:37.050Z,5.45
2017-09-21T12:57:39.627Z,5.15
2017-09-21T12:58:42.118Z,6.37
2017-09-21T12:59:44.622Z,6.05
2017-09-21T13:00:47.905Z,6.12
2017-09-21T13:01:50.980Z,6.10
2017-09-21T13:02:53.435Z,6.95
2017-09-21T13:03:55.905Z,6.87
2017-09-21T13:04:58.387Z,7.15
2017-09-21T13:06:00.907Z,6.95
2017-09-21T13:07:04.138Z,8.18
2017-09-21T13:08:07.359Z,8.00
2017-09-21T13:09:11.356Z,7.95
2017-09-21T13:10:13.840Z,7.70
2017-09-21T13:11:16.343Z,8.40
2017-09-21T13:12:18.834Z,8.13
2017-09-21T13:13:21.353Z,8.50
2017-09-21T13:14:24.577Z,9.50
2017-09-21T13:15:27.116Z,9.13
2017-09-21T13:16:30.396Z,9.82
2017-09-21T13:17:32.929Z,8.60
2017-09-21T13:18:35.434Z,8.82
2017-09-21T13:19:37.898Z,8.25
2017-09-21T13:20:40.372Z,8.80
2017-09-21T13:21:42.882Z,9.88
2017-09-21T13:22:46.132Z,9.45
2017-09-21T13:23:49.392Z,9.68
2017-09-21T13:24:51.894Z,9.50
2017-09-21T13:25:55.142Z,9.35
2017-09-21T13:26:57.760Z,8.90
2017-09-21T13:28:01.081Z,10.10
2017-09-21T13:29:03.566Z,9.02
2017-09-21T13:30:06.053Z,8.98
2017-09-21T13:31:09.308Z,9.15
2017-09-21T13:32:12.554Z,10.50
2017-09-21T13:33:15.039Z,10.35
2017-09-21T13:34:17.527Z,9.95
2017-09-21T13:35:20.034Z,10.35
2017-09-21T13:36:22.559Z,10.80
2017-09-21T13:37:25.170Z,11.10
2017-09-21T13:38:28.437Z,10.65
2017-09-21T13:39:30.945Z,10.40
2017-09-21T13:40:33.555Z,10.98
2017-09-21T13:41:36.843Z,11.60
2017-09-21T13:42:39.339Z,10.50